sensor_id;sensor_type;location;lat;lon;timestamp;P1;durP1;ratioP1;P2;durP2;ratioP2
52244;SDS011;55759;51.586;-1.758;2022-07-29T00:01:25;6.65;;;3.38;;
52244;SDS011;55759;51.586;-1.758;2022-07-29T00:03:51;6.65;;;2.92;;
52244;SDS011;55759;51.586;-1.758;2022-07-29T00:06:16;8.85;;;3.55;;
52244;SDS011;55759;51.586;-1.758;2022-07-29T00:08:42;8.88;;;3.35;;
52244;SDS011;55759;51.586;-1.758;2022-07-29T00:11:08;7.85;;;3.97;;
52244;SDS011;55759;51.586;-1.758;2022-07-29T00:13:34;14.00;;;4.30;;
52244;SDS011;55759;51.586;-1.758;2022-07-29T00:15:59;8.35;;;4.30;;
52244;SDS011;55759;51.586;-1.758;2022-07-29T00:18:25;12.45;;;4.90;;
52244;SDS011;55759;51.586;-1.758;2022-07-29T00:20:51;11.63;;;4.35;;
52244;SDS011;55759;51.586;-1.758;2022-07-29T00:23:17;9.23;;;4.50;;
52244;SDS011;55759;51.586;-1.758;2022-07-29T00:25:43;11.23;;;4.93;;
52244;SDS011;55759;51.586;-1.758;2022-07-29T00:28:08;14.38;;;4.97;;
52244;SDS011;55759;51.586;-1.758;2022-07-29T00:30:34;10.98;;;4.38;;
52244;SDS011;55759;51.586;-1.758;2022-07-29T00:33:00;11.65;;;4.38;;
52244;SDS011;55759;51.586;-1.758;2022-07-29T00:35:25;12.77;;;4.55;;
52244;SDS011;55759;51.586;-1.758;2022-07-29T00:38:13;9.65;;;4.55;;
52244;SDS011;55759;51.586;-1.758;2022-07-29T00:40:40;8.85;;;3.75;;
52244;SDS011;55759;51.586;-1.758;2022-07-29T00:43:06;9.75;;;3.88;;
52244;SDS011;55759;51.586;-1.758;2022-07-29T00:45:32;13.35;;;4.70;;
52244;SDS011;55759;51.586;-1.758;2022-07-29T00:47:58;9.10;;;3.63;;
52244;SDS011;55759;51.586;-1.758;2022-07-29T00:50:24;11.27;;;3.90;;
52244;SDS011;55759;51.586;-1.758;2022-07-29T00:52:50;11.27;;;3.80;;
52244;SDS011;55759;51.586;-1.758;2022-07-29T00:55:17;8.82;;;3.72;;
52244;SDS011;55759;51.586;-1.758;2022-07-29T00:57:43;7.00;;;3.75;;
52244;SDS011;55759;51.586;-1.758;2022-07-29T01:00:19;8.43;;;4.18;;
52244;SDS011;55759;51.586;-1.758;2022-07-29T01:02:50;9.27;;;3.75;;
52244;SDS011;55759;51.586;-1.758;2022-07-29T01:05:17;9.60;;;3.55;;
52244;SDS011;55759;51.586;-1.758;2022-07-29T01:07:45;8.50;;;3.40;;
52244;SDS011;55759;51.586;-1.758;2022-07-29T01:10:13;6.53;;;3.85;;
52244;SDS011;55759;51.586;-1.758;2022-07-29T01:12:40;12.63;;;4.07;;
52244;SDS011;55759;51.586;-1.758;2022-07-29T01:15:08;9.50;;;3.55;;
52244;SDS011;55759;51.586;-1.758;2022-07-29T01:17:45;6.82;;;3.30;;
52244;SDS011;55759;51.586;-1.758;2022-07-29T01:20:20;8.07;;;3.40;;
52244;SDS011;55759;51.586;-1.758;2022-07-29T01:25:47;6.82;;;3.80;;
52244;SDS011;55759;51.586;-1.758;2022-07-29T01:30:58;10.13;;;3.58;;
52244;SDS011;55759;51.586;-1.758;2022-07-29T01:33:27;8.77;;;3.60;;
52244;SDS011;55759;51.586;-1.758;2022-07-29T01:36:14;7.03;;;3.58;;
52244;SDS011;55759;51.586;-1.758;2022-07-29T01:38:52;5.97;;;3.47;;
52244;SDS011;55759;51.586;-1.758;2022-07-29T01:41:24;8.20;;;3.58;;
52244;SDS011;55759;51.586;-1.758;2022-07-29T01:44:02;9.88;;;3.83;;
52244;SDS011;55759;51.586;-1.758;2022-07-29T01:46:35;9.98;;;4.13;;
52244;SDS011;55759;51.586;-1.758;2022-07-29T01:49:24;7.40;;;3.67;;
52244;SDS011;55759;51.586;-1.758;2022-07-29T01:51:54;11.43;;;3.80;;
52244;SDS011;55759;51.586;-1.758;2022-07-29T01:54:30;7.97;;;3.75;;
52244;SDS011;55759;51.586;-1.758;2022-07-29T01:59:33;9.45;;;3.40;;
52244;SDS011;55759;51.586;-1.758;2022-07-29T02:02:00;8.45;;;3.60;;
52244;SDS011;55759;51.586;-1.758;2022-07-29T02:04:26;7.68;;;3.40;;
52244;SDS011;55759;51.586;-1.758;2022-07-29T02:06:54;7.43;;;3.25;;
52244;SDS011;55759;51.586;-1.758;2022-07-29T02:09:23;9.43;;;3.28;;
52244;SDS011;55759;51.586;-1.758;2022-07-29T02:11:52;10.63;;;3.15;;
52244;SDS011;55759;51.586;-1.758;2022-07-29T02:14:21;7.55;;;3.30;;
52244;SDS011;55759;51.586;-1.758;2022-07-29T02:16:49;6.80;;;2.83;;
52244;SDS011;55759;51.586;-1.758;2022-07-29T02:19:18;11.27;;;3.33;;
52244;SDS011;55759;51.586;-1.758;2022-07-29T02:21:47;8.18;;;3.10;;
52244;SDS011;55759;51.586;-1.758;2022-07-29T02:24:15;7.55;;;3.20;;
52244;SDS011;55759;51.586;-1.758;2022-07-29T02:26:43;6.80;;;2.92;;
52244;SDS011;55759;51.586;-1.758;2022-07-29T02:29:10;4.93;;;2.70;;
52244;SDS011;55759;51.586;-1.758;2022-07-29T02:31:38;7.72;;;2.78;;
52244;SDS011;55759;51.586;-1.758;2022-07-29T02:34:08;6.03;;;2.88;;
52244;SDS011;55759;51.586;-1.758;2022-07-29T02:36:36;6.78;;;3.10;;
52244;SDS011;55759;51.586;-1.758;2022-07-29T02:39:03;5.97;;;2.70;;
52244;SDS011;55759;51.586;-1.758;2022-07-29T02:44:13;7.53;;;2.80;;
52244;SDS011;55759;51.586;-1.758;2022-07-29T02:46:46;6.32;;;3.38;;
52244;SDS011;55759;51.586;-1.758;2022-07-29T02:49:23;9.77;;;3.33;;
52244;SDS011;55759;51.586;-1.758;2022-07-29T02:54:49;7.20;;;3.10;;
52244;SDS011;55759;51.586;-1.758;2022-07-29T02:57:22;6.60;;;3.22;;
52244;SDS011;55759;51.586;-1.758;2022-07-29T03:00:28;8.80;;;3.05;;
52244;SDS011;55759;51.586;-1.758;2022-07-29T03:02:58;6.65;;;2.63;;
52244;SDS011;55759;51.586;-1.758;2022-07-29T03:05:25;6.07;;;3.10;;
52244;SDS011;55759;51.586;-1.758;2022-07-29T03:08:00;8.77;;;2.88;;
52244;SDS011;55759;51.586;-1.758;2022-07-29T03:12:55;8.33;;;3.03;;
52244;SDS011;55759;51.586;-1.758;2022-07-29T03:15:22;7.90;;;2.90;;
52244;SDS011;55759;51.586;-1.758;2022-07-29T03:17:49;8.90;;;3.10;;
52244;SDS011;55759;51.586;-1.758;2022-07-29T03:20:15;8.40;;;3.20;;
52244;SDS011;55759;51.586;-1.758;2022-07-29T03:22:42;10.05;;;3.50;;
52244;SDS011;55759;51.586;-1.758;2022-07-29T03:25:12;13.90;;;4.00;;
52244;SDS011;55759;51.586;-1.758;2022-07-29T03:27:39;10.35;;;3.20;;
52244;SDS011;55759;51.586;-1.758;2022-07-29T03:30:05;9.05;;;3.13;;
52244;SDS011;55759;51.586;-1.758;2022-07-29T03:32:32;5.97;;;2.90;;
52244;SDS011;55759;51.586;-1.758;2022-07-29T03:34:58;8.07;;;3.20;;
52244;SDS011;55759;51.586;-1.758;2022-07-29T03:37:24;5.43;;;2.90;;
52244;SDS011;55759;51.586;-1.758;2022-07-29T03:39:50;8.05;;;3.35;;
52244;SDS011;55759;51.586;-1.758;2022-07-29T03:42:17;8.07;;;3.42;;
52244;SDS011;55759;51.586;-1.758;2022-07-29T03:44:47;8.57;;;3.35;;
52244;SDS011;55759;51.586;-1.758;2022-07-29T03:47:15;8.07;;;3.17;;
52244;SDS011;55759;51.586;-1.758;2022-07-29T03:49:46;8.50;;;3.00;;
52244;SDS011;55759;51.586;-1.758;2022-07-29T03:52:14;10.20;;;3.63;;
52244;SDS011;55759;51.586;-1.758;2022-07-29T03:54:40;11.73;;;3.72;;
52244;SDS011;55759;51.586;-1.758;2022-07-29T03:57:06;10.95;;;4.00;;
52244;SDS011;55759;51.586;-1.758;2022-07-29T03:59:34;9.20;;;3.70;;
52244;SDS011;55759;51.586;-1.758;2022-07-29T04:04:27;12.68;;;3.63;;
52244;SDS011;55759;51.586;-1.758;2022-07-29T04:06:53;11.35;;;3.92;;
52244;SDS011;55759;51.586;-1.758;2022-07-29T04:09:19;7.07;;;3.30;;
52244;SDS011;55759;51.586;-1.758;2022-07-29T04:11:44;12.20;;;3.80;;
52244;SDS011;55759;51.586;-1.758;2022-07-29T04:14:10;10.20;;;3.25;;
52244;SDS011;55759;51.586;-1.758;2022-07-29T04:16:36;11.05;;;3.55;;
52244;SDS011;55759;51.586;-1.758;2022-07-29T04:19:02;10.80;;;3.63;;
52244;SDS011;55759;51.586;-1.758;2022-07-29T04:21:27;8.77;;;3.40;;
52244;SDS011;55759;51.586;-1.758;2022-07-29T04:23:53;6.05;;;3.30;;
52244;SDS011;55759;51.586;-1.758;2022-07-29T04:26:19;12.18;;;4.40;;
52244;SDS011;55759;51.586;-1.758;2022-07-29T04:28:45;14.48;;;3.75;;
52244;SDS011;55759;51.586;-1.758;2022-07-29T04:31:12;9.55;;;3.65;;
52244;SDS011;55759;51.586;-1.758;2022-07-29T04:33:38;5.53;;;3.30;;
52244;SDS011;55759;51.586;-1.758;2022-07-29T04:36:04;10.60;;;3.38;;
52244;SDS011;55759;51.586;-1.758;2022-07-29T04:38:30;7.47;;;3.38;;
52244;SDS011;55759;51.586;-1.758;2022-07-29T04:40:56;7.97;;;3.05;;
52244;SDS011;55759;51.586;-1.758;2022-07-29T04:43:22;8.68;;;3.92;;
52244;SDS011;55759;51.586;-1.758;2022-07-29T04:45:47;12.55;;;3.78;;
52244;SDS011;55759;51.586;-1.758;2022-07-29T04:48:13;10.20;;;3.85;;
52244;SDS011;55759;51.586;-1.758;2022-07-29T04:50:39;10.88;;;4.13;;
52244;SDS011;55759;51.586;-1.758;2022-07-29T04:53:06;10.05;;;3.63;;
52244;SDS011;55759;51.586;-1.758;2022-07-29T04:55:32;7.35;;;3.60;;
52244;SDS011;55759;51.586;-1.758;2022-07-29T04:57:58;8.95;;;3.58;;
52244;SDS011;55759;51.586;-1.758;2022-07-29T05:00:24;9.82;;;3.38;;
52244;SDS011;55759;51.586;-1.758;2022-07-29T05:02:49;7.75;;;3.50;;
52244;SDS011;55759;51.586;-1.758;2022-07-29T05:05:15;11.07;;;3.20;;
52244;SDS011;55759;51.586;-1.758;2022-07-29T05:07:41;7.80;;;3.20;;
52244;SDS011;55759;51.586;-1.758;2022-07-29T05:10:07;6.63;;;3.45;;
52244;SDS011;55759;51.586;-1.758;2022-07-29T05:12:33;6.22;;;3.00;;
52244;SDS011;55759;51.586;-1.758;2022-07-29T05:14:59;8.57;;;3.03;;
52244;SDS011;55759;51.586;-1.758;2022-07-29T05:17:25;8.07;;;3.00;;
52244;SDS011;55759;51.586;-1.758;2022-07-29T05:19:51;15.50;;;3.50;;
52244;SDS011;55759;51.586;-1.758;2022-07-29T05:22:18;7.90;;;3.10;;
52244;SDS011;55759;51.586;-1.758;2022-07-29T05:24:44;5.32;;;2.72;;
52244;SDS011;55759;51.586;-1.758;2022-07-29T05:27:10;6.03;;;3.00;;
52244;SDS011;55759;51.586;-1.758;2022-07-29T05:29:35;6.40;;;3.00;;
52244;SDS011;55759;51.586;-1.758;2022-07-29T05:32:02;5.50;;;2.92;;
52244;SDS011;55759;51.586;-1.758;2022-07-29T05:34:28;6.03;;;2.85;;
52244;SDS011;55759;51.586;-1.758;2022-07-29T05:36:54;11.63;;;3.55;;
52244;SDS011;55759;51.586;-1.758;2022-07-29T05:39:20;6.22;;;3.08;;
52244;SDS011;55759;51.586;-1.758;2022-07-29T05:41:45;6.35;;;2.90;;
52244;SDS011;55759;51.586;-1.758;2022-07-29T05:44:11;6.82;;;2.72;;
52244;SDS011;55759;51.586;-1.758;2022-07-29T05:46:38;7.55;;;3.10;;
52244;SDS011;55759;51.586;-1.758;2022-07-29T05:49:04;5.32;;;2.88;;
52244;SDS011;55759;51.586;-1.758;2022-07-29T05:51:31;5.38;;;3.00;;
52244;SDS011;55759;51.586;-1.758;2022-07-29T05:53:58;7.85;;;3.40;;
52244;SDS011;55759;51.586;-1.758;2022-07-29T05:56:24;5.78;;;2.97;;
52244;SDS011;55759;51.586;-1.758;2022-07-29T05:58:50;6.30;;;3.28;;
52244;SDS011;55759;51.586;-1.758;2022-07-29T06:01:16;7.05;;;3.20;;
52244;SDS011;55759;51.586;-1.758;2022-07-29T06:03:42;11.48;;;3.22;;
52244;SDS011;55759;51.586;-1.758;2022-07-29T06:06:08;9.85;;;3.00;;
52244;SDS011;55759;51.586;-1.758;2022-07-29T06:08:34;6.68;;;3.30;;
52244;SDS011;55759;51.586;-1.758;2022-07-29T06:11:01;11.00;;;3.65;;
52244;SDS011;55759;51.586;-1.758;2022-07-29T06:13:27;11.02;;;3.45;;
52244;SDS011;55759;51.586;-1.758;2022-07-29T06:15:53;6.93;;;3.65;;
52244;SDS011;55759;51.586;-1.758;2022-07-29T06:18:19;7.53;;;3.28;;
52244;SDS011;55759;51.586;-1.758;2022-07-29T06:20:46;8.65;;;2.97;;
52244;SDS011;55759;51.586;-1.758;2022-07-29T06:23:11;9.43;;;3.67;;
52244;SDS011;55759;51.586;-1.758;2022-07-29T06:25:39;9.13;;;3.22;;
52244;SDS011;55759;51.586;-1.758;2022-07-29T06:28:05;9.50;;;2.97;;
52244;SDS011;55759;51.586;-1.758;2022-07-29T06:30:31;9.20;;;2.83;;
52244;SDS011;55759;51.586;-1.758;2022-07-29T06:32:57;11.15;;;2.95;;
52244;SDS011;55759;51.586;-1.758;2022-07-29T06:35:23;6.07;;;2.80;;
52244;SDS011;55759;51.586;-1.758;2022-07-29T06:37:49;7.10;;;3.00;;
52244;SDS011;55759;51.586;-1.758;2022-07-29T06:40:14;8.80;;;3.63;;
52244;SDS011;55759;51.586;-1.758;2022-07-29T06:42:58;7.10;;;2.72;;
52244;SDS011;55759;51.586;-1.758;2022-07-29T06:45:24;7.20;;;2.80;;
52244;SDS011;55759;51.586;-1.758;2022-07-29T06:47:50;8.30;;;2.95;;
52244;SDS011;55759;51.586;-1.758;2022-07-29T06:50:16;6.93;;;2.50;;
52244;SDS011;55759;51.586;-1.758;2022-07-29T06:52:42;9.77;;;2.70;;
52244;SDS011;55759;51.586;-1.758;2022-07-29T06:55:07;7.85;;;2.97;;
52244;SDS011;55759;51.586;-1.758;2022-07-29T06:57:33;9.55;;;2.72;;
52244;SDS011;55759;51.586;-1.758;2022-07-29T06:59:59;8.52;;;2.60;;
52244;SDS011;55759;51.586;-1.758;2022-07-29T07:04:51;6.57;;;2.50;;
52244;SDS011;55759;51.586;-1.758;2022-07-29T07:07:18;6.95;;;2.80;;
52244;SDS011;55759;51.586;-1.758;2022-07-29T07:09:43;4.38;;;2.42;;
52244;SDS011;55759;51.586;-1.758;2022-07-29T07:12:09;12.68;;;2.88;;
52244;SDS011;55759;51.586;-1.758;2022-07-29T07:14:35;6.45;;;2.50;;
52244;SDS011;55759;51.586;-1.758;2022-07-29T07:17:01;3.90;;;2.20;;
52244;SDS011;55759;51.586;-1.758;2022-07-29T07:19:28;6.13;;;2.55;;
52244;SDS011;55759;51.586;-1.758;2022-07-29T07:21:54;6.70;;;2.95;;
52244;SDS011;55759;51.586;-1.758;2022-07-29T07:24:20;7.82;;;2.65;;
52244;SDS011;55759;51.586;-1.758;2022-07-29T07:26:46;11.18;;;2.70;;
52244;SDS011;55759;51.586;-1.758;2022-07-29T07:29:11;5.20;;;2.40;;
52244;SDS011;55759;51.586;-1.758;2022-07-29T07:31:38;6.45;;;2.50;;
52244;SDS011;55759;51.586;-1.758;2022-07-29T07:34:03;9.48;;;2.50;;
52244;SDS011;55759;51.586;-1.758;2022-07-29T07:36:29;8.68;;;2.42;;
52244;SDS011;55759;51.586;-1.758;2022-07-29T07:38:55;11.80;;;2.70;;
52244;SDS011;55759;51.586;-1.758;2022-07-29T07:41:21;5.30;;;2.28;;
52244;SDS011;55759;51.586;-1.758;2022-07-29T07:43:48;10.80;;;2.63;;
52244;SDS011;55759;51.586;-1.758;2022-07-29T07:46:14;12.82;;;3.42;;
52244;SDS011;55759;51.586;-1.758;2022-07-29T07:48:40;8.32;;;2.45;;
52244;SDS011;55759;51.586;-1.758;2022-07-29T07:51:06;8.48;;;2.67;;
52244;SDS011;55759;51.586;-1.758;2022-07-29T07:55:57;8.50;;;2.53;;
52244;SDS011;55759;51.586;-1.758;2022-07-29T08:00:52;6.35;;;2.40;;
52244;SDS011;55759;51.586;-1.758;2022-07-29T08:03:20;8.98;;;2.50;;
52244;SDS011;55759;51.586;-1.758;2022-07-29T08:05:48;6.10;;;2.30;;
52244;SDS011;55759;51.586;-1.758;2022-07-29T08:08:15;6.00;;;2.40;;
52244;SDS011;55759;51.586;-1.758;2022-07-29T08:10:41;5.30;;;2.33;;
52244;SDS011;55759;51.586;-1.758;2022-07-29T08:13:25;5.47;;;2.40;;
52244;SDS011;55759;51.586;-1.758;2022-07-29T08:15:55;7.18;;;2.30;;
52244;SDS011;55759;51.586;-1.758;2022-07-29T08:18:36;6.55;;;2.20;;
52244;SDS011;55759;51.586;-1.758;2022-07-29T08:21:02;8.70;;;2.17;;
52244;SDS011;55759;51.586;-1.758;2022-07-29T08:26:03;16.98;;;9.48;;
52244;SDS011;55759;51.586;-1.758;2022-07-29T08:28:30;10.75;;;3.47;;
52244;SDS011;55759;51.586;-1.758;2022-07-29T08:30:55;4.93;;;2.00;;
52244;SDS011;55759;51.586;-1.758;2022-07-29T08:33:21;5.45;;;1.80;;
52244;SDS011;55759;51.586;-1.758;2022-07-29T08:35:50;5.65;;;1.95;;
52244;SDS011;55759;51.586;-1.758;2022-07-29T08:38:16;5.00;;;1.88;;
52244;SDS011;55759;51.586;-1.758;2022-07-29T08:40:41;5.40;;;1.88;;
52244;SDS011;55759;51.586;-1.758;2022-07-29T08:43:08;7.53;;;2.10;;
52244;SDS011;55759;51.586;-1.758;2022-07-29T08:45:44;4.95;;;1.50;;
52244;SDS011;55759;51.586;-1.758;2022-07-29T08:48:12;8.63;;;2.03;;
52244;SDS011;55759;51.586;-1.758;2022-07-29T08:50:39;6.20;;;1.88;;
52244;SDS011;55759;51.586;-1.758;2022-07-29T08:53:09;3.53;;;1.55;;
52244;SDS011;55759;51.586;-1.758;2022-07-29T08:55:39;3.22;;;1.73;;
52244;SDS011;55759;51.586;-1.758;2022-07-29T08:58:06;6.53;;;1.80;;
52244;SDS011;55759;51.586;-1.758;2022-07-29T09:00:32;3.33;;;1.52;;
52244;SDS011;55759;51.586;-1.758;2022-07-29T09:03:00;4.47;;;1.77;;
52244;SDS011;55759;51.586;-1.758;2022-07-29T09:05:29;3.58;;;1.40;;
52244;SDS011;55759;51.586;-1.758;2022-07-29T09:07:56;4.22;;;1.30;;
52244;SDS011;55759;51.586;-1.758;2022-07-29T09:10:22;2.65;;;1.45;;
52244;SDS011;55759;51.586;-1.758;2022-07-29T09:12:48;2.90;;;1.40;;
52244;SDS011;55759;51.586;-1.758;2022-07-29T09:15:14;3.72;;;1.60;;
52244;SDS011;55759;51.586;-1.758;2022-07-29T09:17:49;5.68;;;1.67;;
52244;SDS011;55759;51.586;-1.758;2022-07-29T09:20:16;2.58;;;1.55;;
52244;SDS011;55759;51.586;-1.758;2022-07-29T09:22:45;4.80;;;1.50;;
52244;SDS011;55759;51.586;-1.758;2022-07-29T09:25:14;4.28;;;1.65;;
52244;SDS011;55759;51.586;-1.758;2022-07-29T09:28:04;5.18;;;1.85;;
52244;SDS011;55759;51.586;-1.758;2022-07-29T09:30:55;9.05;;;4.68;;
52244;SDS011;55759;51.586;-1.758;2022-07-29T09:33:23;7.53;;;3.55;;
52244;SDS011;55759;51.586;-1.758;2022-07-29T09:36:03;6.22;;;1.60;;
52244;SDS011;55759;51.586;-1.758;2022-07-29T09:38:34;5.72;;;1.42;;
52244;SDS011;55759;51.586;-1.758;2022-07-29T09:41:02;6.50;;;1.50;;
52244;SDS011;55759;51.586;-1.758;2022-07-29T09:43:29;3.50;;;1.40;;
52244;SDS011;55759;51.586;-1.758;2022-07-29T09:48:22;2.83;;;1.33;;
52244;SDS011;55759;51.586;-1.758;2022-07-29T09:50:49;2.60;;;1.40;;
52244;SDS011;55759;51.586;-1.758;2022-07-29T09:53:48;2.78;;;1.30;;
52244;SDS011;55759;51.586;-1.758;2022-07-29T09:56:07;3.50;;;1.40;;
52244;SDS011;55759;51.586;-1.758;2022-07-29T09:58:35;2.65;;;1.50;;
52244;SDS011;55759;51.586;-1.758;2022-07-29T10:03:28;5.20;;;1.52;;
52244;SDS011;55759;51.586;-1.758;2022-07-29T10:08:35;4.53;;;1.60;;
52244;SDS011;55759;51.586;-1.758;2022-07-29T10:11:09;4.25;;;1.35;;
52244;SDS011;55759;51.586;-1.758;2022-07-29T10:13:40;4.88;;;1.45;;
52244;SDS011;55759;51.586;-1.758;2022-07-29T10:16:07;3.72;;;1.60;;
52244;SDS011;55759;51.586;-1.758;2022-07-29T10:18:33;4.68;;;1.50;;
52244;SDS011;55759;51.586;-1.758;2022-07-29T10:21:00;5.50;;;1.60;;
52244;SDS011;55759;51.586;-1.758;2022-07-29T10:23:27;7.60;;;1.67;;
52244;SDS011;55759;51.586;-1.758;2022-07-29T10:25:54;5.00;;;1.50;;
52244;SDS011;55759;51.586;-1.758;2022-07-29T10:30:45;5.57;;;1.40;;
52244;SDS011;55759;51.586;-1.758;2022-07-29T10:38:55;3.97;;;1.70;;
52244;SDS011;55759;51.586;-1.758;2022-07-29T10:44:35;3.50;;;1.40;;
52244;SDS011;55759;51.586;-1.758;2022-07-29T10:47:05;3.58;;;1.65;;
52244;SDS011;55759;51.586;-1.758;2022-07-29T10:49:31;4.28;;;1.70;;
52244;SDS011;55759;51.586;-1.758;2022-07-29T11:07:34;3.58;;;1.50;;
52244;SDS011;55759;51.586;-1.758;2022-07-29T11:15:10;9.48;;;1.70;;
52244;SDS011;55759;51.586;-1.758;2022-07-29T11:22:57;4.30;;;1.30;;
52244;SDS011;55759;51.586;-1.758;2022-07-29T11:25:26;3.55;;;1.30;;
52244;SDS011;55759;51.586;-1.758;2022-07-29T11:28:07;4.47;;;1.60;;
52244;SDS011;55759;51.586;-1.758;2022-07-29T11:30:48;4.68;;;1.33;;
52244;SDS011;55759;51.586;-1.758;2022-07-29T11:33:30;7.78;;;3.08;;
52244;SDS011;55759;51.586;-1.758;2022-07-29T11:38:40;8.32;;;3.97;;
52244;SDS011;55759;51.586;-1.758;2022-07-29T11:49:19;3.72;;;1.42;;
52244;SDS011;55759;51.586;-1.758;2022-07-29T11:51:52;5.53;;;3.10;;
52244;SDS011;55759;51.586;-1.758;2022-07-29T11:54:24;3.13;;;1.45;;
52244;SDS011;55759;51.586;-1.758;2022-07-29T11:56:53;3.45;;;1.20;;
52244;SDS011;55759;51.586;-1.758;2022-07-29T11:59:20;8.07;;;1.63;;
52244;SDS011;55759;51.586;-1.758;2022-07-29T12:01:58;3.50;;;1.30;;
52244;SDS011;55759;51.586;-1.758;2022-07-29T12:04:25;6.63;;;1.48;;
52244;SDS011;55759;51.586;-1.758;2022-07-29T12:06:53;4.75;;;1.60;;
52244;SDS011;55759;51.586;-1.758;2022-07-29T12:09:20;5.75;;;1.50;;
52244;SDS011;55759;51.586;-1.758;2022-07-29T12:11:48;5.05;;;1.67;;
52244;SDS011;55759;51.586;-1.758;2022-07-29T12:14:33;4.97;;;1.33;;
52244;SDS011;55759;51.586;-1.758;2022-07-29T12:16:59;4.45;;;1.35;;
52244;SDS011;55759;51.586;-1.758;2022-07-29T12:19:26;3.58;;;1.40;;
52244;SDS011;55759;51.586;-1.758;2022-07-29T12:21:52;2.03;;;1.08;;
52244;SDS011;55759;51.586;-1.758;2022-07-29T12:24:19;6.40;;;1.42;;
52244;SDS011;55759;51.586;-1.758;2022-07-29T12:26:56;4.25;;;1.40;;
52244;SDS011;55759;51.586;-1.758;2022-07-29T12:29:22;5.28;;;1.30;;
52244;SDS011;55759;51.586;-1.758;2022-07-29T12:31:52;6.45;;;3.20;;
52244;SDS011;55759;51.586;-1.758;2022-07-29T12:34:19;5.40;;;1.95;;
52244;SDS011;55759;51.586;-1.758;2022-07-29T12:36:47;5.43;;;1.50;;
52244;SDS011;55759;51.586;-1.758;2022-07-29T12:39:15;3.33;;;1.50;;
52244;SDS011;55759;51.586;-1.758;2022-07-29T12:41:42;3.10;;;1.27;;
52244;SDS011;55759;51.586;-1.758;2022-07-29T12:44:08;4.70;;;1.30;;
52244;SDS011;55759;51.586;-1.758;2022-07-29T12:46:34;4.38;;;1.35;;
52244;SDS011;55759;51.586;-1.758;2022-07-29T12:49:00;4.78;;;1.35;;
52244;SDS011;55759;51.586;-1.758;2022-07-29T12:54:12;3.70;;;1.20;;
52244;SDS011;55759;51.586;-1.758;2022-07-29T12:56:43;2.22;;;1.20;;
52244;SDS011;55759;51.586;-1.758;2022-07-29T12:59:16;3.53;;;1.17;;
52244;SDS011;55759;51.586;-1.758;2022-07-29T13:01:46;4.75;;;1.20;;
52244;SDS011;55759;51.586;-1.758;2022-07-29T13:04:27;6.80;;;1.58;;
52244;SDS011;55759;51.586;-1.758;2022-07-29T13:07:02;4.63;;;1.20;;
52244;SDS011;55759;51.586;-1.758;2022-07-29T13:09:37;4.38;;;1.30;;
52244;SDS011;55759;51.586;-1.758;2022-07-29T13:12:06;2.17;;;1.30;;
52244;SDS011;55759;51.586;-1.758;2022-07-29T13:14:36;4.25;;;1.38;;
52244;SDS011;55759;51.586;-1.758;2022-07-29T13:17:15;5.03;;;1.20;;
52244;SDS011;55759;51.586;-1.758;2022-07-29T13:22:14;1.60;;;1.00;;
52244;SDS011;55759;51.586;-1.758;2022-07-29T13:24:49;3.50;;;1.20;;
52244;SDS011;55759;51.586;-1.758;2022-07-29T13:27:20;3.90;;;1.10;;
52244;SDS011;55759;51.586;-1.758;2022-07-29T13:29:57;2.60;;;1.35;;
52244;SDS011;55759;51.586;-1.758;2022-07-29T13:32:31;4.43;;;1.30;;
52244;SDS011;55759;51.586;-1.758;2022-07-29T13:35:02;4.50;;;1.20;;
52244;SDS011;55759;51.586;-1.758;2022-07-29T13:37:39;3.47;;;1.25;;
52244;SDS011;55759;51.586;-1.758;2022-07-29T13:40:05;2.83;;;1.00;;
52244;SDS011;55759;51.586;-1.758;2022-07-29T13:42:33;3.67;;;1.20;;
52244;SDS011;55759;51.586;-1.758;2022-07-29T13:44:59;4.32;;;1.23;;
52244;SDS011;55759;51.586;-1.758;2022-07-29T13:47:25;4.45;;;1.10;;
52244;SDS011;55759;51.586;-1.758;2022-07-29T13:49:55;6.78;;;4.80;;
52244;SDS011;55759;51.586;-1.758;2022-07-29T13:52:20;5.13;;;1.83;;
52244;SDS011;55759;51.586;-1.758;2022-07-29T13:54:46;3.35;;;1.20;;
52244;SDS011;55759;51.586;-1.758;2022-07-29T13:57:13;3.20;;;1.10;;
52244;SDS011;55759;51.586;-1.758;2022-07-29T13:59:42;3.42;;;1.20;;
52244;SDS011;55759;51.586;-1.758;2022-07-29T14:02:11;3.33;;;1.35;;
52244;SDS011;55759;51.586;-1.758;2022-07-29T14:04:37;3.17;;;1.10;;
52244;SDS011;55759;51.586;-1.758;2022-07-29T14:07:03;3.17;;;1.10;;
52244;SDS011;55759;51.586;-1.758;2022-07-29T14:09:31;2.53;;;1.20;;
52244;SDS011;55759;51.586;-1.758;2022-07-29T14:11:57;6.30;;;1.10;;
52244;SDS011;55759;51.586;-1.758;2022-07-29T14:14:23;4.97;;;1.23;;
52244;SDS011;55759;51.586;-1.758;2022-07-29T14:16:52;2.45;;;1.20;;
52244;SDS011;55759;51.586;-1.758;2022-07-29T14:19:20;4.90;;;1.13;;
52244;SDS011;55759;51.586;-1.758;2022-07-29T14:21:46;2.58;;;1.30;;
52244;SDS011;55759;51.586;-1.758;2022-07-29T14:24:12;3.13;;;1.23;;
52244;SDS011;55759;51.586;-1.758;2022-07-29T14:26:40;4.68;;;1.20;;
52244;SDS011;55759;51.586;-1.758;2022-07-29T14:29:06;4.32;;;1.20;;
52244;SDS011;55759;51.586;-1.758;2022-07-29T14:31:32;3.53;;;1.10;;
52244;SDS011;55759;51.586;-1.758;2022-07-29T14:34:05;2.58;;;1.10;;
52244;SDS011;55759;51.586;-1.758;2022-07-29T14:36:31;3.45;;;1.10;;
52244;SDS011;55759;51.586;-1.758;2022-07-29T14:38:56;2.90;;;1.15;;
52244;SDS011;55759;51.586;-1.758;2022-07-29T14:41:22;3.20;;;1.00;;
52244;SDS011;55759;51.586;-1.758;2022-07-29T14:43:48;3.63;;;1.15;;
52244;SDS011;55759;51.586;-1.758;2022-07-29T14:46:26;4.25;;;1.08;;
52244;SDS011;55759;51.586;-1.758;2022-07-29T14:48:54;5.50;;;1.33;;
52244;SDS011;55759;51.586;-1.758;2022-07-29T14:51:20;4.40;;;1.30;;
52244;SDS011;55759;51.586;-1.758;2022-07-29T14:53:46;4.18;;;1.30;;
52244;SDS011;55759;51.586;-1.758;2022-07-29T14:56:22;2.60;;;1.30;;
52244;SDS011;55759;51.586;-1.758;2022-07-29T14:58:48;5.68;;;1.40;;
52244;SDS011;55759;51.586;-1.758;2022-07-29T15:01:14;3.95;;;1.20;;
52244;SDS011;55759;51.586;-1.758;2022-07-29T15:03:40;3.70;;;1.23;;
52244;SDS011;55759;51.586;-1.758;2022-07-29T15:06:06;5.03;;;1.30;;
52244;SDS011;55759;51.586;-1.758;2022-07-29T15:08:31;3.72;;;1.38;;
52244;SDS011;55759;51.586;-1.758;2022-07-29T15:10:57;5.07;;;1.20;;
52244;SDS011;55759;51.586;-1.758;2022-07-29T15:13:24;2.83;;;1.00;;
52244;SDS011;55759;51.586;-1.758;2022-07-29T15:15:50;3.40;;;1.30;;
52244;SDS011;55759;51.586;-1.758;2022-07-29T15:18:19;4.70;;;1.20;;
52244;SDS011;55759;51.586;-1.758;2022-07-29T15:20:44;2.97;;;1.30;;
52244;SDS011;55759;51.586;-1.758;2022-07-29T15:23:13;3.25;;;1.13;;
52244;SDS011;55759;51.586;-1.758;2022-07-29T15:25:38;4.85;;;1.63;;
52244;SDS011;55759;51.586;-1.758;2022-07-29T15:28:04;5.57;;;1.50;;
52244;SDS011;55759;51.586;-1.758;2022-07-29T15:30:33;1.27;;;1.05;;
52244;SDS011;55759;51.586;-1.758;2022-07-29T15:33:05;5.72;;;1.40;;
52244;SDS011;55759;51.586;-1.758;2022-07-29T15:35:33;5.88;;;1.60;;
52244;SDS011;55759;51.586;-1.758;2022-07-29T15:38:02;4.53;;;1.52;;
52244;SDS011;55759;51.586;-1.758;2022-07-29T15:40:28;3.05;;;1.42;;
52244;SDS011;55759;51.586;-1.758;2022-07-29T15:42:54;4.05;;;1.45;;
52244;SDS011;55759;51.586;-1.758;2022-07-29T15:45:19;3.40;;;1.60;;
52244;SDS011;55759;51.586;-1.758;2022-07-29T15:47:45;3.67;;;1.60;;
52244;SDS011;55759;51.586;-1.758;2022-07-29T15:50:13;4.80;;;1.63;;
52244;SDS011;55759;51.586;-1.758;2022-07-29T15:52:47;4.43;;;1.50;;
52244;SDS011;55759;51.586;-1.758;2022-07-29T15:55:15;4.38;;;1.50;;
52244;SDS011;55759;51.586;-1.758;2022-07-29T15:57:41;3.55;;;1.50;;
52244;SDS011;55759;51.586;-1.758;2022-07-29T16:00:07;3.95;;;1.40;;
52244;SDS011;55759;51.586;-1.758;2022-07-29T16:02:37;3.15;;;1.40;;
52244;SDS011;55759;51.586;-1.758;2022-07-29T16:05:03;4.00;;;1.73;;
52244;SDS011;55759;51.586;-1.758;2022-07-29T16:07:29;6.68;;;1.75;;
52244;SDS011;55759;51.586;-1.758;2022-07-29T16:09:55;5.38;;;1.60;;